17/07->24/07: Intensa ola de frío en todo el país

Avatar de Usuario
Marcelo
Mensajes: 5972
Registrado: Jue Jul 30, 2009 3:42 pm
Ubicación: Villa Crespo, Ciudad de Buenos Aires

17/07->24/07: Intensa ola de frío en todo el país

Mensaje por Marcelo » Mar Jul 16, 2013 2:24 pm

Buenas, abro ya el nuevo thread para iniciar el seguimiento preliminar de esta intensa ola de frío que se viene, sin dejar de lado todavía el viejo thread, relevante debido a las temperaturas relativamente altas que se están dando en el centro y norte del país.

Hasta ahora lo más notable viene sucediendo en Ushuaia, donde ha estado nevando todo el día con bajísimas temperaturas, intenso viento y a menudo baja visibilidad, lo que implicaría una nevada intensa por momentos. Ahora mismo, a las 14.00:

Temperatura: -3,2ºC
Sensación Térmica: -12,8ºC
Viento: Sudoeste 53 km/h
Humedad: 100%
Visibilidad: 500 metros

En el resto de la Patagonia aún no se han dado eventos relevantes. Tan solo en Puerto Deseado se registró una leve nevada.
Se espera que hacia finales del día el frío se instale en la Patagonia Sur.
Mañana miércoles se instalará en el norte de la Patagonia.
El día jueves ya será bien frío en el centro del país.
El día viernes finalmente alcanzará el norte argentino.
La posta para lo que sucede en Buenos Aires la tiene la estación de AEROPARQUE.

Mis threads de Climatología:
Mapas Climáticos de Argentina
Temperaturas Extremas de Argentina
Nevadas en Sitios Inusuales

Avatar de Usuario
Ale de Castelar
Mensajes: 28108
Registrado: Sab Mar 03, 2012 12:25 pm
Ubicación: Caballito

Re: 17/07->24/07: Intensa ola de frío en todo el país

Mensaje por Ale de Castelar » Mar Jul 16, 2013 3:20 pm

Ushuaia ya lo padece....foto de hoy
Adjuntos
20130716-104.jpg

Avatar de Usuario
NicodWilde
Mensajes: 16808
Registrado: Mié Ago 01, 2012 7:34 pm
Ubicación: Wilde, Buenos Aires

Re: 17/07->24/07: Intensa ola de frío en todo el país

Mensaje por NicodWilde » Mar Jul 16, 2013 3:56 pm

22,5ºC en Ortúzar el termómetro, se fue a la mier**. Nadie lo pronosticó. Así que mañana no me extrañaría tener 23-24-25ºC estando en prefrontal con oestes. Que cosa esto, cuando en Ortúzar sube demasiado la temperatura y como que nadie lo puede prever, espero que esto no tire al tacho tener una máxima promedio acorde en esta segunda década :twisted:...
No necesito que sea fácil, sólo que sea posible.

Nico

Avatar de Usuario
LisandroSc
Mensajes: 11218
Registrado: Dom Jul 12, 2009 10:13 pm
Ubicación: Parque Centenario, CABA

Re: 17/07->24/07: Intensa ola de frío en todo el país

Mensaje por LisandroSc » Mar Jul 16, 2013 4:14 pm

NicodWilde escribió:22,5ºC en Ortúzar el termómetro, se fue a la mier**. Nadie lo pronosticó. Así que mañana no me extrañaría tener 23-24-25ºC estando en prefrontal con oestes. Que cosa esto, cuando en Ortúzar sube demasiado la temperatura y como que nadie lo puede prever, espero que esto no tire al tacho tener una máxima promedio acorde en esta segunda década :twisted:...
Para poner este mensaje, lo hubieras puesto en el seguimiento anterior. Este es para la ola de frio, que ya esta haciendo estragos en el sur y a partir de mañana a la noche lo sentiremos por casa :D

Ojala sea UN GRAN TOPIC de seguimiento!
Meado por un Dinosaurio - Dios me odia! by Porra.

Avatar de Usuario
NicodWilde
Mensajes: 16808
Registrado: Mié Ago 01, 2012 7:34 pm
Ubicación: Wilde, Buenos Aires

Re: 17/07->24/07: Intensa ola de frío en todo el país

Mensaje por NicodWilde » Mar Jul 16, 2013 4:16 pm

LisandroSc escribió:
NicodWilde escribió:22,5ºC en Ortúzar el termómetro, se fue a la mier**. Nadie lo pronosticó. Así que mañana no me extrañaría tener 23-24-25ºC estando en prefrontal con oestes. Que cosa esto, cuando en Ortúzar sube demasiado la temperatura y como que nadie lo puede prever, espero que esto no tire al tacho tener una máxima promedio acorde en esta segunda década :twisted:...
Para poner este mensaje, lo hubieras puesto en el seguimiento anterior. Este es para la ola de frio, que ya esta haciendo estragos en el sur y a partir de mañana a la noche lo sentiremos por casa :D

Ojala sea UN GRAN TOPIC de seguimiento!
COINCIDO con vos, ojalá quede en el recuero el aire frío :D. Disculpame, como abrieron hoy el topic no me di cuenta :oops:...

Esperando el aire frío...
No necesito que sea fácil, sólo que sea posible.

Nico

Avatar de Usuario
Diecha
Mensajes: 14715
Registrado: Jue Ago 25, 2011 9:31 pm
Ubicación: Lomas de Zamora

Re: 17/07->24/07: Intensa ola de frío en todo el país

Mensaje por Diecha » Mar Jul 16, 2013 4:31 pm

Buenas.

- Ushuaia 16 hs: -2,4°C / -11,8°C de ST / 95% / Parcialmente nublado con nevada (1,2 Km de visibilidad) / Viento del SO a 55 Km/h.

Imagen
Imagen
Imagen

Avatar de Usuario
Ernest
Mensajes: 12007
Registrado: Vie Jul 17, 2009 10:54 pm
Ubicación: Balvanera, CABA

Re: 17/07->24/07: Intensa ola de frío en todo el país

Mensaje por Ernest » Mar Jul 16, 2013 6:46 pm

El ataque de los icebergs. Día 0.
18 hs.

CABA y PBA, por ahora ajenas a la amenaza verde azulado que se asoma por el extremo sur del país (las iso -5 y -10) disfrutan el princpio de una noche más que primaveral con oestes y noroestes leves, generalizados.

OCBA (dato EMA, 18.38) 18,6
Aeroparque 19
Ezeiza 19,5
La Plata 18,4
Junín 19
Dolores 15,2
Bolívar 17,2
Azul 17
Tandil 16
Mar del Plata 14,8
Villa Gesell 13,2

Mientras tanto, en la remota Patagonia...

Viedma 16,9
Bariloche 10,5
Trelew 11
Comodoro Rivadavia 6,4 (con lluvia la hora anterior)
Puerto Deseado 2,4 (oeste a 44 km/h, ST -4,5)
San Julián 2,3 (sur a 51 km/h, ST -5,1)
Perito Moreno 5,6
El Calafate 1
Río Gallegos 0,6 (SO a 29 km/h, ST -5,6)
Río Grande -1 (oeste a 25 km/h, ST -7,3)
Ushuaia -2 (nevada, visibilidad 1,2 km, SO 46 km/h, ST -10,6)
Did you want to talk about the weather, or were you just making chitchat?

Twitter: @ErnestoMeteo

Avatar de Usuario
Diecha
Mensajes: 14715
Registrado: Jue Ago 25, 2011 9:31 pm
Ubicación: Lomas de Zamora

Re: 17/07->24/07: Intensa ola de frío en todo el país

Mensaje por Diecha » Mar Jul 16, 2013 8:50 pm

Ushuaia:

- 21:15 hs: SAWH 170015Z 23023G34KT 0050 +SNDRSN OVC005 M02/M02 Q1005 (50 mts de visibilidad, fuerte nevada/ventisca baja/nieve levantada por el viento)
- 21 hs: SAWH 170000Z 25022G35KT 9999 SNDRSN SCT018 BKN035 M02/M02 Q1004 (moderada nevada/ventisca baja/nieve levantada por el viento)
- 20:15 hs: SAWH 162315Z 25022G32KT 1200 +SNDRSN OVC010 M02/M02 Q1004 (fuerte nevada/ventisca baja/nieve levantada por el viento)
- 20 hs: SAWH 162300Z 23022G32KT 3000 SNDRSN OVC010 M02/M03 Q1004 (moderada nevada/ventisca baja/nieve levantada por el viento)
- 19:25 hs: SAWH 162225Z 23022G30KT 0800 +SNDRSN OVC009 M02/M02 Q1003 (fuerte nevada/ventisca baja/nieve levantada por el viento)
- 19 hs: SAWH 162200Z 23027KT 1000 +SNDRSN OVC010 M02/M02 Q1003 (fuerte nevada/ventisca baja/nieve levantada por el viento)

Imagen
Imagen

Avatar de Usuario
Ernest
Mensajes: 12007
Registrado: Vie Jul 17, 2009 10:54 pm
Ubicación: Balvanera, CABA

Re: 17/07->24/07: Intensa ola de frío en todo el país

Mensaje por Ernest » Mar Jul 16, 2013 10:02 pm

El ataque de los icebergs. Día 0.
21 hs.

Noche bien templada en el AMBA. Bastante más fresco en el resto de la provincia, especialmente en la zona costera, lo cual me llama la atención.
Noroestes y oestes en la mayor parte de la provincia, o calmas.

Villa Ortúzar 17
Aeroparque 15,5
Ezeiza 16,2
La Plata 16
Junín 11,5
Las Flores 12,8
Dolores 10
Villa Gesell 6,6
Bolívar 9,5
Azul 10,8
Tandil 7,8
Mar del Plata 7
Tres Arroyos 9,3
Bahía Blanca 10

En Mordor, digo, la Patagonia. Notablemente cálido aun en el norte, gélido en Santa Cruz y Tierra del Fuego. Me llama la atención la estación Perito Moreno, ¿estará reportando bien?

Neuquén 17,2 (!) ¿Prefrontales?
Viedma 10,8
El Bolsón 11,1
Bariloche 9,4 (O 55)
Maquinchao 10
Esquel 6,2 (lluvia)
Trelew 8,6
Puerto Madryn 8
Comodoro Rivadavia 5,9
Puerto Deseado 0,6 (O 44, ST -6,9)
Perito Moreno 4,2
El Calafate -0,6
San Julián -0,2 (SO 27, ST -6,5)
Puerto Santa Cruz -1,8 (SO 37, ST -9,5)
Río Gallegos -1,4 (O 29, ST -8,2)
Río Grande -3,2 (ST -9)
Ushuaia -2 (nevada, O 40, ST -10,1)

Mount Pleasant Airport -1,8 (chaparrón de nieve, SO 37, ST -9,5)
Did you want to talk about the weather, or were you just making chitchat?

Twitter: @ErnestoMeteo

Avatar de Usuario
Ale de Castelar
Mensajes: 28108
Registrado: Sab Mar 03, 2012 12:25 pm
Ubicación: Caballito

Re: 17/07->24/07: Intensa ola de frío en todo el país

Mensaje por Ale de Castelar » Mar Jul 16, 2013 10:06 pm

Antartico dia en Ushuaia, hay preparados operativos de limpieza para mañana.........the winter is coming nomas

[youtube]http://www.youtube.com/watch?v=qc_Nxo3HbfM[/youtube]


https://www.youtube.com/watch?v=aYVX03eZJxs (este no se puede en miniatura)

Cerrado